Time;durP1;ratioP1;P1;durP2;ratioP2;P2;SDS_P1;SDS_P2;PMS_P1;PMS_P2;Temp;Humidity;BMP_temperature;BMP_pressure;BME280_temperature;BME280_humidity;BME280_pressure;Samples;Min_cycle;Max_cycle;Signal;HPM_P1;HPM_P2
2021/08/11 00:00:48;;;;;;;6.42;4.70;;;;;;;28.25;52.60;101217.30;1721510;82;21046;-48
2021/08/11 00:03:14;;;;;;;5.67;5.17;;;;;;;28.23;52.46;101215.26;1713720;82;22251;-48
2021/08/11 00:05:41;;;;;;;5.00;4.60;;;;;;;28.19;52.54;101210.64;1720287;82;21062;-46
2021/08/11 00:08:08;;;;;;;6.53;5.03;;;;;;;28.11;52.68;101214.97;1720980;82;21131;-48
2021/08/11 00:10:36;;;;;;;5.85;5.22;;;;;;;27.82;53.42;101214.80;1718761;82;21594;-46
2021/08/11 00:13:03;;;;;;;8.55;5.20;;;;;;;27.93;53.26;101223.23;1719356;82;21064;-48
2021/08/11 00:15:30;;;;;;;5.22;4.37;;;;;;;27.93;53.15;101221.89;1727237;82;21003;-46
2021/08/11 00:17:56;;;;;;;10.28;5.03;;;;;;;27.97;52.88;101221.53;1721359;82;21011;-46
2021/08/11 00:20:24;;;;;;;5.08;4.55;;;;;;;27.94;52.71;101232.48;1721602;82;21069;-48
2021/08/11 00:22:52;;;;;;;5.65;4.70;;;;;;;27.92;52.86;101221.55;1722515;82;21451;-46
2021/08/11 00:25:19;;;;;;;5.83;5.22;;;;;;;27.90;53.04;101223.00;1719941;83;20983;-49
2021/08/11 00:27:46;;;;;;;5.12;4.65;;;;;;;27.90;53.34;101231.54;1722301;83;21026;-50
2021/08/11 00:30:14;;;;;;;5.28;4.78;;;;;;;27.88;53.36;101225.48;1723732;82;21042;-49
2021/08/11 00:32:41;;;;;;;6.80;4.60;;;;;;;27.86;53.11;101228.77;1720409;82;21033;-46
2021/08/11 00:35:09;;;;;;;10.68;5.28;;;;;;;27.83;53.32;101229.02;1718874;82;21658;-48
2021/08/11 00:37:36;;;;;;;6.37;5.05;;;;;;;27.82;53.40;101223.33;1722399;82;21553;-48
2021/08/11 00:40:06;;;;;;;8.60;5.00;;;;;;;27.81;53.53;101220.28;1725611;82;21065;-48
2021/08/11 00:42:33;;;;;;;5.42;4.67;;;;;;;27.81;53.42;101229.64;1726400;82;21026;-49
2021/08/11 00:45:02;;;;;;;7.03;5.35;;;;;;;27.79;53.47;101216.90;1720016;82;21081;-46
2021/08/11 00:47:33;;;;;;;7.67;4.75;;;;;;;27.75;53.35;101223.01;1718426;82;21046;-46
2021/08/11 00:50:00;;;;;;;5.20;4.70;;;;;;;27.73;53.35;101216.09;1719816;82;21061;-47
2021/08/11 00:52:28;;;;;;;6.00;4.70;;;;;;;27.71;53.29;101218.05;1714286;82;21089;-49
2021/08/11 00:54:55;;;;;;;7.05;5.03;;;;;;;27.68;53.61;101216.95;1722419;82;20998;-46
2021/08/11 00:57:23;;;;;;;8.28;4.75;;;;;;;27.66;53.84;101216.25;1721350;82;21515;-48
2021/08/11 00:59:50;;;;;;;5.08;4.67;;;;;;;27.66;53.81;101219.77;1724419;82;21015;-49
2021/08/11 01:02:18;;;;;;;5.20;4.58;;;;;;;27.63;53.75;101220.53;1723873;82;21086;-48
2021/08/11 01:04:45;;;;;;;5.20;4.70;;;;;;;27.61;53.72;101225.16;1723312;82;21041;-48
2021/08/11 01:07:15;;;;;;;6.53;4.50;;;;;;;27.59;53.95;101219.10;1720891;82;21566;-52
2021/08/11 01:09:43;;;;;;;5.20;4.35;;;;;;;27.57;54.27;101223.25;1708545;83;21517;-48
2021/08/11 01:12:11;;;;;;;8.70;5.62;;;;;;;27.55;54.50;101229.70;1725966;82;21114;-46
2021/08/11 01:14:40;;;;;;;7.30;5.00;;;;;;;27.54;54.48;101226.17;1722569;82;21053;-46
2021/08/11 01:17:10;;;;;;;4.78;4.35;;;;;;;27.53;54.62;101219.63;1717983;82;21029;-50
2021/08/11 01:19:37;;;;;;;5.28;4.50;;;;;;;27.52;54.66;101227.27;1721710;82;21046;-49
2021/08/11 01:22:10;;;;;;;6.40;4.37;;;;;;;27.50;54.47;101231.90;1726466;82;21065;-49
2021/08/11 01:24:48;;;;;;;8.20;5.00;;;;;;;27.47;54.37;101228.17;1727709;82;21534;-52
2021/08/11 01:27:28;;;;;;;5.60;4.42;;;;;;;27.47;54.15;101237.52;1722235;82;21110;-46
2021/08/11 01:30:20;;;;;;;5.53;4.60;;;;;;;27.43;53.88;101236.09;1667035;85;21045;-49
2021/08/11 01:33:13;;;;;;;7.12;4.58;;;;;;;27.38;54.12;101240.00;1639877;87;21080;-50
2021/08/11 01:35:56;;;;;;;9.20;5.00;;;;;;;27.36;54.02;101249.11;1642899;85;21060;-46
2021/08/11 01:38:24;;;;;;;5.65;4.65;;;;;;;27.34;54.31;101250.59;1672534;85;21085;-49
2021/08/11 01:40:57;;;;;;;6.17;4.62;;;;;;;27.30;54.24;101252.27;1631764;86;21090;-49
2021/08/11 01:45:56;;;;;;;8.05;4.95;;;;;;;27.21;54.16;101243.19;1653016;85;21001;-50
2021/08/11 01:48:28;;;;;;;7.42;4.60;;;;;;;27.20;53.92;101254.84;1646535;85;21120;-49
2021/08/11 01:50:57;;;;;;;6.03;4.30;;;;;;;27.17;53.96;101255.59;1611645;88;21081;-49
2021/08/11 01:53:25;;;;;;;7.03;4.37;;;;;;;27.09;54.57;101257.57;1603178;89;21041;-49
2021/08/11 01:55:57;;;;;;;5.42;4.92;;;;;;;27.09;54.57;101257.57;1619928;87;21589;-49
2021/08/11 01:58:30;;;;;;;7.97;4.42;;;;;;;27.07;54.68;101255.52;1625459;87;21057;-50
2021/08/11 02:01:04;;;;;;;7.85;4.42;;;;;;;27.05;54.69;101257.46;1590036;89;21077;-47
2021/08/11 02:03:31;;;;;;;6.78;4.40;;;;;;;27.03;54.68;101255.41;1578263;89;21088;-47
2021/08/11 02:05:59;;;;;;;6.15;4.70;;;;;;;27.00;54.65;101258.31;1585718;89;21629;-49
2021/08/11 02:08:26;;;;;;;7.83;4.47;;;;;;;26.99;54.79;101251.30;1613669;88;21073;-46
2021/08/11 02:10:56;;;;;;;7.87;4.37;;;;;;;26.98;54.84;101252.25;1616388;87;21542;-47
2021/08/11 02:13:24;;;;;;;7.62;4.33;;;;;;;26.96;54.61;101246.19;1597321;88;21170;-49
2021/08/11 02:15:53;;;;;;;15.85;6.37;;;;;;;26.95;54.65;101251.19;1593132;89;21648;-50
2021/08/11 02:18:21;;;;;;;8.65;4.70;;;;;;;26.93;54.70;101251.80;1574790;90;21156;-47
2021/08/11 02:20:51;;;;;;;5.58;4.50;;;;;;;26.91;54.87;101255.08;1623326;88;21052;-48
2021/08/11 02:23:18;;;;;;;6.17;4.55;;;;;;;26.88;54.74;101264.67;1598878;89;21606;-50
2021/08/11 02:26:05;;;;;;;6.30;4.30;;;;;;;26.85;54.55;101262.27;1577627;89;21605;-48
2021/08/11 02:28:37;;;;;;;5.33;4.15;;;;;;;26.81;54.55;101268.80;1528063;93;21201;-46
2021/08/11 02:31:09;;;;;;;4.72;4.25;;;;;;;26.80;54.88;101266.26;1517961;93;21074;-50
2021/08/11 02:33:52;;;;;;;4.58;4.10;;;;;;;26.78;55.08;101274.40;1515039;92;21085;-49
2021/08/11 02:36:28;;;;;;;6.08;4.60;;;;;;;26.78;54.83;101277.07;1479604;96;21120;-46
2021/08/11 02:39:04;;;;;;;4.70;4.30;;;;;;;26.74;54.80;101276.95;1470044;97;21158;-46
2021/08/11 02:41:37;;;;;;;6.08;4.37;;;;;;;26.72;54.78;101274.05;1471779;97;21139;-49
2021/08/11 02:44:10;;;;;;;6.15;4.50;;;;;;;26.71;54.45;101274.48;1409319;99;21218;-46
2021/08/11 02:46:41;;;;;;;5.83;4.37;;;;;;;26.71;54.76;101274.48;1381453;103;21125;-50
2021/08/11 02:49:14;;;;;;;6.33;4.40;;;;;;;26.67;54.51;101277.05;1395991;100;21118;-50
2021/08/11 02:51:41;;;;;;;5.42;4.30;;;;;;;26.67;54.51;101277.05;1398581;101;21667;-46
2021/08/11 02:54:12;;;;;;;5.17;4.05;;;;;;;26.68;54.95;101284.09;1397308;100;21161;-47
2021/08/11 02:56:44;;;;;;;7.90;4.65;;;;;;;26.68;54.89;101278.76;1375205;103;21671;-49
2021/08/11 02:59:13;;;;;;;6.08;4.87;;;;;;;26.67;54.79;101278.38;1365772;103;21138;-48
2021/08/11 03:01:41;;;;;;;5.42;4.33;;;;;;;26.67;54.46;101278.89;1404655;101;21645;-48
2021/08/11 03:04:08;;;;;;;4.83;4.28;;;;;;;26.67;54.46;101278.89;1392697;100;21121;-49
2021/08/11 03:06:36;;;;;;;5.83;4.37;;;;;;;26.67;54.69;101276.22;1416559;100;22031;-51
2021/08/11 03:09:03;;;;;;;6.10;4.50;;;;;;;26.65;54.50;101268.31;1409657;101;21112;-49
2021/08/11 03:11:33;;;;;;;6.65;5.15;;;;;;;26.65;54.50;101268.31;1432885;99;21147;-47
2021/08/11 03:14:06;;;;;;;6.25;4.40;;;;;;;26.66;54.44;101264.69;1435485;98;21543;-46
2021/08/11 03:16:38;;;;;;;6.45;4.40;;;;;;;26.63;54.28;101278.77;1426230;99;21117;-51
2021/08/11 03:19:06;;;;;;;7.83;4.42;;;;;;;26.63;54.28;101278.77;1432302;98;21291;-49
2021/08/11 03:21:35;;;;;;;8.95;4.50;;;;;;;26.57;54.58;101276.09;1426820;99;21133;-49
2021/08/11 03:24:03;;;;;;;4.55;4.15;;;;;;;26.57;54.58;101276.09;1448075;97;21184;-46
2021/08/11 03:26:30;;;;;;;6.95;4.12;;;;;;;26.58;54.70;101273.28;1503803;93;21638;-46
2021/08/11 03:29:01;;;;;;;5.00;4.00;;;;;;;26.57;54.92;101280.09;1526507;92;21141;-49
2021/08/11 03:31:30;;;;;;;6.97;4.67;;;;;;;26.57;54.92;101280.09;1566915;90;21156;-47
2021/08/11 03:33:57;;;;;;;8.15;4.87;;;;;;;26.57;54.95;101274.75;1598901;88;21048;-51
2021/08/11 03:36:25;;;;;;;6.58;4.50;;;;;;;26.55;54.04;101277.55;1591735;88;21053;-50
2021/08/11 03:38:52;;;;;;;5.47;4.45;;;;;;;26.55;54.04;101277.55;1576949;89;21091;-49
2021/08/11 03:41:20;;;;;;;4.75;4.22;;;;;;;26.54;54.32;101279.02;1573118;89;21097;-49
2021/08/11 03:43:47;;;;;;;5.10;4.53;;;;;;;26.57;54.38;101276.09;1600602;88;21086;-46
2021/08/11 03:46:14;;;;;;;6.55;4.55;;;;;;;26.74;54.67;101272.95;1616090;87;21083;-47
2021/08/11 03:48:42;;;;;;;5.85;4.45;;;;;;;26.79;54.40;101270.74;1619942;86;21028;-50
2021/08/11 03:51:10;;;;;;;5.50;4.87;;;;;;;26.79;54.40;101270.74;1668420;84;21057;-46
2021/08/11 03:53:39;;;;;;;8.83;4.60;;;;;;;26.85;54.26;101275.61;1663831;85;21036;-50
2021/08/11 03:56:07;;;;;;;6.25;3.95;;;;;;;26.85;54.09;101280.95;1660018;84;21544;-47
2021/08/11 03:58:34;;;;;;;7.90;4.85;;;;;;;26.85;53.76;101275.61;1666238;84;21052;-49
2021/08/11 04:01:03;;;;;;;6.90;4.60;;;;;;;26.86;53.45;101276.44;1663729;84;21607;-48
2021/08/11 04:03:30;;;;;;;5.62;4.90;;;;;;;26.85;53.57;101269.41;1665459;83;21137;-49
2021/08/11 04:05:56;;;;;;;10.60;5.47;;;;;;;26.82;53.20;101269.65;1662734;84;21131;-46
2021/08/11 04:08:23;;;;;;;6.00;4.67;;;;;;;26.78;53.33;101269.06;1674803;84;21132;-49
2021/08/11 04:10:51;;;;;;;10.95;5.00;;;;;;;26.74;53.15;101267.61;1675950;84;22482;-47
2021/08/11 04:13:19;;;;;;;9.43;4.47;;;;;;;26.74;53.15;101267.61;1671800;84;21019;-47
2021/08/11 04:15:46;;;;;;;7.85;4.87;;;;;;;26.70;53.20;101267.47;1678177;84;21084;-49
2021/08/11 04:18:13;;;;;;;117.28;11.83;;;;;;;26.70;53.20;101267.47;1673494;84;21075;-49
2021/08/11 04:20:40;;;;;;;9.43;4.85;;;;;;;26.68;53.18;101266.74;1663525;85;21032;-46
2021/08/11 04:23:06;;;;;;;14.00;5.17;;;;;;;26.67;53.41;101266.36;1720334;82;21050;-46
2021/08/11 04:25:39;;;;;;;14.60;5.62;;;;;;;26.68;53.50;101265.41;1721882;83;21074;-51
2021/08/11 04:28:07;;;;;;;6.12;4.65;;;;;;;26.66;53.19;101264.69;1724348;82;21064;-46
2021/08/11 04:30:34;;;;;;;7.95;4.97;;;;;;;26.67;53.13;101266.36;1719268;82;21566;-51
2021/08/11 04:33:02;;;;;;;11.85;4.87;;;;;;;26.61;52.60;101266.38;1720138;82;20987;-45
2021/08/11 04:35:28;;;;;;;7.47;4.83;;;;;;;26.61;52.60;101266.38;1723043;82;21553;-48
2021/08/11 04:37:56;;;;;;;6.65;4.47;;;;;;;26.62;52.88;101273.91;1723709;82;21007;-46
2021/08/11 04:40:22;;;;;;;5.95;4.55;;;;;;;26.62;52.83;101273.91;1717574;82;21017;-48
2021/08/11 04:42:48;;;;;;;11.55;5.08;;;;;;;26.63;52.63;101278.27;1722047;82;21022;-47
2021/08/11 04:45:15;;;;;;;9.30;5.00;;;;;;;26.63;52.64;101280.94;1721368;82;21058;-47
2021/08/11 04:47:41;;;;;;;9.38;4.95;;;;;;;26.62;52.83;101279.25;1723233;82;21054;-47
2021/08/11 04:50:09;;;;;;;6.17;4.00;;;;;;;26.65;52.76;101281.66;1724087;82;21034;-49
2021/08/11 04:52:35;;;;;;;7.05;5.28;;;;;;;26.66;52.65;101274.50;1718440;82;21003;-51
2021/08/11 04:55:04;;;;;;;4.72;4.25;;;;;;;26.65;52.54;101273.65;1721730;82;21117;-47
2021/08/11 04:57:30;;;;;;;7.67;4.55;;;;;;;26.66;52.48;101276.70;1723885;82;21058;-46
2021/08/11 04:59:57;;;;;;;5.45;4.70;;;;;;;26.67;52.47;101280.22;1716269;82;21011;-47
2021/08/11 05:02:23;;;;;;;7.72;4.97;;;;;;;26.68;52.34;101278.76;1718298;82;21093;-47
2021/08/11 05:04:50;;;;;;;8.50;5.03;;;;;;;26.70;52.96;101290.16;1724615;82;20990;-46
2021/08/11 05:07:16;;;;;;;9.65;5.20;;;;;;;26.72;52.82;101287.39;1721507;82;21569;-46
2021/08/11 05:09:43;;;;;;;8.85;4.78;;;;;;;26.75;53.11;101292.50;1714342;82;21622;-48
2021/08/11 05:12:10;;;;;;;8.75;5.08;;;;;;;26.76;53.00;101287.03;1721369;82;21020;-47
2021/08/11 05:14:36;;;;;;;7.05;5.05;;;;;;;26.77;53.17;101282.03;1719130;82;21498;-49
2021/08/11 05:17:03;;;;;;;7.17;4.75;;;;;;;26.84;52.76;101295.27;1720678;82;21483;-49
2021/08/11 05:19:30;;;;;;;8.80;5.20;;;;;;;26.84;52.15;101291.26;1713853;82;21058;-46
2021/08/11 05:21:56;;;;;;;6.40;4.97;;;;;;;26.85;52.33;101295.64;1718835;82;21085;-46
2021/08/11 05:24:23;;;;;;;7.90;5.00;;;;;;;26.88;52.07;101297.19;1722006;83;20978;-50
2021/08/11 05:26:50;;;;;;;4.85;4.20;;;;;;;26.89;52.23;101307.77;1720912;82;21534;-45
2021/08/11 05:29:20;;;;;;;7.60;4.87;;;;;;;26.89;51.88;101303.77;1722227;82;21006;-45
2021/08/11 05:31:46;;;;;;;6.80;4.72;;;;;;;26.89;51.57;101304.24;1720043;82;21548;-46
2021/08/11 05:34:14;;;;;;;5.35;4.50;;;;;;;26.88;51.68;101307.87;1726390;82;21058;-50
2021/08/11 05:36:42;;;;;;;9.60;5.22;;;;;;;26.85;51.84;101296.98;1716177;82;21620;-49
2021/08/11 05:39:08;;;;;;;8.40;5.95;;;;;;;26.84;52.02;101305.09;1721955;82;21514;-46
2021/08/11 05:41:35;;;;;;;8.53;5.30;;;;;;;26.85;52.23;101299.65;1724268;82;21049;-49
2021/08/11 05:44:01;;;;;;;8.03;5.22;;;;;;;26.89;51.97;101301.09;1728453;82;21007;-47
2021/08/11 05:46:28;;;;;;;7.40;5.42;;;;;;;26.91;52.15;101301.81;1723100;83;21003;-49
2021/08/11 05:48:55;;;;;;;8.33;6.10;;;;;;;26.94;52.20;101299.36;1722300;82;21030;-46
2021/08/11 05:51:21;;;;;;;6.22;5.62;;;;;;;26.97;52.02;101291.97;1727293;82;21050;-51
2021/08/11 05:53:48;;;;;;;7.92;5.60;;;;;;;27.02;51.67;101298.25;1727076;82;21358;-50
2021/08/11 05:56:14;;;;;;;9.55;5.33;;;;;;;27.05;51.64;101297.53;1725997;82;21542;-52
2021/08/11 05:58:41;;;;;;;6.35;5.35;;;;;;;27.05;51.81;101290.86;1722695;82;21486;-45
2021/08/11 06:01:07;;;;;;;6.97;5.40;;;;;;;27.06;51.21;101296.54;1732201;82;21549;-48
2021/08/11 06:03:34;;;;;;;10.68;5.55;;;;;;;27.01;51.10;101300.09;1736020;82;21021;-48
2021/08/11 06:06:02;;;;;;;9.35;4.80;;;;;;;27.03;51.27;101298.14;1738061;82;21035;-47
2021/08/11 06:08:31;;;;;;;9.08;5.12;;;;;;;27.05;51.32;101305.55;1740004;82;21506;-47
2021/08/11 06:10:57;;;;;;;7.92;5.30;;;;;;;27.09;51.34;101293.63;1722265;82;21046;-52
2021/08/11 06:13:24;;;;;;;8.50;5.25;;;;;;;27.16;51.14;101296.14;1718626;82;21046;-50
2021/08/11 06:15:51;;;;;;;6.80;6.08;;;;;;;27.19;51.15;101290.56;1717055;82;21005;-50
2021/08/11 06:18:18;;;;;;;8.03;7.25;;;;;;;27.19;51.42;101289.23;1717448;82;21525;-50
2021/08/11 06:20:47;;;;;;;6.83;5.55;;;;;;;27.23;51.28;101289.33;1724428;82;21042;-48
2021/08/11 06:23:14;;;;;;;6.90;4.47;;;;;;;27.19;51.14;101282.55;1720604;82;20985;-50
2021/08/11 06:25:41;;;;;;;10.45;5.62;;;;;;;27.22;51.10;101290.30;1722623;82;21030;-48
2021/08/11 06:28:08;;;;;;;5.53;5.03;;;;;;;27.22;51.37;101284.95;1723866;82;20995;-48
2021/08/11 06:30:35;;;;;;;7.65;5.00;;;;;;;27.23;51.02;101281.31;1720941;82;21046;-48
2021/08/11 06:33:02;;;;;;;7.90;5.47;;;;;;;27.26;51.15;101282.41;1725483;82;21019;-50
2021/08/11 06:35:28;;;;;;;7.97;5.70;;;;;;;27.30;51.30;101274.50;1726370;82;21022;-49
2021/08/11 06:37:55;;;;;;;8.25;5.45;;;;;;;27.33;51.17;101271.55;1720809;82;21538;-50
2021/08/11 06:40:22;;;;;;;7.83;4.97;;;;;;;27.37;51.12;101267.69;1720628;82;21015;-48
2021/08/11 06:42:49;;;;;;;7.20;5.08;;;;;;;27.40;50.82;101266.59;1717475;82;21076;-48
2021/08/11 06:45:18;;;;;;;12.95;5.87;;;;;;;27.46;50.91;101272.75;1716399;82;21053;-46
2021/08/11 06:47:45;;;;;;;8.70;5.75;;;;;;;27.54;50.91;101273.43;1723857;82;21050;-49
2021/08/11 06:50:13;;;;;;;6.90;4.92;;;;;;;27.61;51.21;101270.61;1719581;82;21010;-47
2021/08/11 06:52:40;;;;;;;8.50;5.30;;;;;;;27.68;50.85;101265.09;1722376;82;21019;-47
2021/08/11 06:55:10;;;;;;;8.23;5.15;;;;;;;27.74;50.59;101259.25;1721443;82;21698;-49
2021/08/11 06:57:37;;;;;;;6.53;5.08;;;;;;;27.76;50.38;101266.13;1722281;82;21005;-48
2021/08/11 07:00:05;;;;;;;6.15;4.97;;;;;;;27.79;50.59;101261.02;1726655;82;21011;-48
2021/08/11 07:02:32;;;;;;;6.75;4.70;;;;;;;27.83;50.18;101261.11;1723912;82;21487;-47
2021/08/11 07:04:59;;;;;;;9.55;5.17;;;;;;;27.87;50.29;101265.22;1720905;82;21651;-48
2021/08/11 07:07:25;;;;;;;6.87;5.15;;;;;;;27.89;50.03;101268.61;1717379;82;21030;-51
2021/08/11 07:09:54;;;;;;;7.50;4.60;;;;;;;27.92;50.16;101271.03;1718851;82;21025;-48
2021/08/11 07:12:21;;;;;;;7.05;4.97;;;;;;;27.95;50.00;101258.72;1728011;82;21030;-47
2021/08/11 07:14:48;;;;;;;6.92;4.90;;;;;;;28.00;50.19;101263.23;1716591;82;21506;-47
2021/08/11 07:17:15;;;;;;;7.08;4.75;;;;;;;28.07;50.33;101269.73;1723992;82;21015;-49
2021/08/11 07:19:42;;;;;;;8.00;5.08;;;;;;;28.12;50.24;101267.52;1725295;82;21564;-49
2021/08/11 07:22:10;;;;;;;5.85;5.17;;;;;;;28.15;50.00;101267.27;1720360;82;21042;-47
2021/08/11 07:24:36;;;;;;;8.80;5.72;;;;;;;28.23;49.81;101263.42;1722952;82;21033;-48
2021/08/11 07:27:04;;;;;;;9.13;5.80;;;;;;;28.30;50.11;101263.23;1723177;82;21101;-50
2021/08/11 07:29:31;;;;;;;7.28;5.03;;;;;;;28.35;49.95;101258.33;1726630;82;21007;-50
2021/08/11 07:31:58;;;;;;;7.08;5.00;;;;;;;28.39;49.76;101257.08;1719190;82;21057;-47
2021/08/11 07:34:25;;;;;;;15.15;5.65;;;;;;;28.44;49.54;101254.82;1719709;82;21548;-48
2021/08/11 07:36:52;;;;;;;8.25;5.60;;;;;;;28.49;49.91;101252.60;1712289;82;21002;-48
2021/08/11 07:39:18;;;;;;;9.03;5.25;;;;;;;28.54;49.67;101247.66;1724919;82;21613;-46
2021/08/11 07:41:45;;;;;;;10.95;5.12;;;;;;;28.58;49.84;101247.81;1721643;82;21005;-47
2021/08/11 07:44:11;;;;;;;8.80;5.72;;;;;;;28.60;49.74;101240.48;1717860;82;21022;-49
2021/08/11 07:46:38;;;;;;;5.70;5.05;;;;;;;28.63;49.58;101236.18;1725633;82;21519;-48
2021/08/11 07:49:05;;;;;;;4.80;4.30;;;;;;;28.69;49.37;101242.33;1722605;82;21066;-48
2021/08/11 07:51:32;;;;;;;5.28;4.78;;;;;;;28.72;49.28;101246.08;1724249;82;21561;-47
2021/08/11 07:53:58;;;;;;;8.35;4.67;;;;;;;28.75;49.25;101237.75;1722195;82;20995;-48
2021/08/11 07:56:25;;;;;;;8.03;5.35;;;;;;;28.83;49.66;101241.10;1718153;82;21007;-50
2021/08/11 07:58:52;;;;;;;8.63;5.33;;;;;;;28.87;49.20;101246.02;1721978;82;21085;-48
2021/08/11 08:01:18;;;;;;;7.17;4.90;;;;;;;28.91;49.20;101236.72;1719175;82;21023;-47
2021/08/11 08:03:46;;;;;;;5.83;4.80;;;;;;;28.95;49.28;101235.45;1714155;82;21518;-49
2021/08/11 08:06:13;;;;;;;7.67;5.67;;;;;;;29.01;49.07;101234.55;1721736;82;21958;-47
2021/08/11 08:08:39;;;;;;;8.63;5.65;;;;;;;29.05;48.93;101235.97;1721831;82;21035;-50
2021/08/11 08:11:06;;;;;;;7.37;5.50;;;;;;;29.10;48.95;101229.19;1724999;82;21549;-47
2021/08/11 08:13:33;;;;;;;7.50;5.17;;;;;;;29.14;48.86;101231.12;1722193;82;21574;-47
2021/08/11 08:15:59;;;;;;;9.28;4.95;;;;;;;29.19;48.43;101227.53;1722835;82;21046;-48
2021/08/11 08:18:26;;;;;;;8.50;5.25;;;;;;;29.23;48.40;101224.92;1717463;82;21007;-46
2021/08/11 08:20:54;;;;;;;10.58;5.40;;;;;;;29.27;48.38;101222.31;1720110;82;21467;-47
2021/08/11 08:23:21;;;;;;;6.47;5.05;;;;;;;29.32;48.20;101217.39;1720831;82;21080;-48
2021/08/11 08:25:48;;;;;;;7.55;5.42;;;;;;;29.35;47.70;101217.08;1721562;82;21022;-47
2021/08/11 08:28:15;;;;;;;6.08;5.03;;;;;;;29.38;47.68;101216.81;1720373;82;21049;-51
2021/08/11 08:30:42;;;;;;;6.08;5.25;;;;;;;29.41;47.09;101210.66;1724719;82;21082;-48
2021/08/11 08:33:09;;;;;;;6.20;4.72;;;;;;;29.46;47.14;101207.55;1717004;82;21078;-52
2021/08/11 08:35:36;;;;;;;5.00;4.45;;;;;;;29.50;47.27;101202.25;1718429;82;21009;-49
2021/08/11 08:38:04;;;;;;;9.58;5.00;;;;;;;29.54;46.91;101200.48;1717354;82;21570;-47
2021/08/11 08:40:37;;;;;;;7.87;4.33;;;;;;;29.59;47.10;101208.11;1721251;82;21549;-50
2021/08/11 08:43:04;;;;;;;5.72;4.12;;;;;;;29.63;46.45;101208.17;1663607;85;21132;-50
2021/08/11 08:45:31;;;;;;;9.13;5.10;;;;;;;29.70;46.18;101209.27;1681111;83;21013;-50
2021/08/11 08:47:58;;;;;;;9.78;4.40;;;;;;;29.75;45.97;101209.72;1658862;86;21021;-48
2021/08/11 08:50:25;;;;;;;4.97;4.40;;;;;;;29.83;45.86;101207.16;1673687;85;21037;-47
2021/08/11 08:52:51;;;;;;;8.40;4.58;;;;;;;29.90;45.42;101200.22;1646471;86;21164;-49
2021/08/11 08:55:18;;;;;;;8.55;3.87;;;;;;;29.96;45.42;101193.41;1653665;84;21037;-47
2021/08/11 08:57:45;;;;;;;5.10;3.80;;;;;;;30.00;45.16;101192.98;1664767;84;20990;-48
2021/08/11 09:00:12;;;;;;;9.80;4.10;;;;;;;30.06;44.89;101196.41;1639901;85;21043;-49
2021/08/11 09:02:40;;;;;;;6.10;3.67;;;;;;;30.11;44.90;101198.14;1602632;88;21057;-49
2021/08/11 09:05:11;;;;;;;6.72;3.52;;;;;;;30.16;44.61;101187.81;1606032;88;21099;-51
2021/08/11 09:07:45;;;;;;;6.33;3.47;;;;;;;30.21;44.25;101194.91;1595967;87;21129;-50
2021/08/11 09:10:23;;;;;;;13.62;3.55;;;;;;;30.27;43.97;101184.09;1603621;87;21019;-49
2021/08/11 09:12:51;;;;;;;5.45;3.33;;;;;;;30.30;43.42;101183.81;1623112;87;21120;-49
2021/08/11 09:15:34;;;;;;;16.67;4.00;;;;;;;30.35;43.18;101190.45;1602681;87;21058;-50
2021/08/11 09:18:22;;;;;;;6.72;3.62;;;;;;;30.40;42.83;101193.52;1608130;87;21565;-49
2021/08/11 09:21:10;;;;;;;9.23;4.22;;;;;;;30.45;42.78;101193.92;1574585;89;21069;-49
2021/08/11 09:23:40;;;;;;;8.73;3.70;;;;;;;30.51;43.12;101191.97;1581333;89;21086;-49
2021/08/11 09:26:09;;;;;;;5.50;3.52;;;;;;;30.57;42.85;101185.14;1567617;89;21099;-49
2021/08/11 09:28:38;;;;;;;9.80;3.60;;;;;;;30.61;42.79;101187.88;1576736;90;21038;-48
2021/08/11 09:31:29;;;;;;;5.85;4.20;;;;;;;30.65;42.18;101189.75;1562657;90;21091;-48
2021/08/11 09:34:00;;;;;;;5.08;3.33;;;;;;;30.70;41.42;101190.15;1553737;92;21015;-50
2021/08/11 09:36:27;;;;;;;6.08;3.12;;;;;;;30.76;40.33;101188.19;1585739;89;21070;-49
2021/08/11 09:38:59;;;;;;;6.78;3.35;;;;;;;30.81;40.23;101192.63;1587698;87;21620;-49
2021/08/11 09:41:25;;;;;;;4.75;3.05;;;;;;;30.86;40.40;101187.66;1612875;87;21090;-49
2021/08/11 09:44:09;;;;;;;9.43;3.10;;;;;;;30.92;40.37;101185.70;1610497;87;21085;-50
2021/08/11 09:46:40;;;;;;;7.45;2.87;;;;;;;30.97;39.68;101191.47;1621240;86;21092;-49
2021/08/11 09:49:21;;;;;;;3.92;2.98;;;;;;;31.00;38.41;101189.30;1607264;87;21042;-50
2021/08/11 09:52:00;;;;;;;2.98;2.67;;;;;;;31.05;38.41;101194.23;1613502;87;21049;-48
2021/08/11 09:54:31;;;;;;;11.78;2.92;;;;;;;31.09;38.31;101190.23;1611273;87;21077;-49
2021/08/11 09:56:58;;;;;;;;;;;;;;;31.13;37.58;101187.58;1600657;87;21094;-49
2021/08/11 09:59:26;;;;;;;3.27;2.33;;;;;;;31.17;37.03;101192.98;1595155;87;20118;-50
2021/08/11 10:01:59;;;;;;;6.55;2.67;;;;;;;31.19;36.76;101193.67;1595584;87;21502;-49
2021/08/11 10:04:31;;;;;;;3.02;2.30;;;;;;;31.23;37.15;101190.52;1548752;91;21077;-48
2021/08/11 10:06:58;;;;;;;2.52;2.00;;;;;;;31.25;35.63;101184.98;1551249;91;21747;-49
2021/08/11 10:09:26;;;;;;;4.97;2.12;;;;;;;31.28;34.53;101184.69;1538816;92;21257;-52
2021/08/11 10:11:58;;;;;;;6.67;2.65;;;;;;;31.30;35.66;101178.12;1537437;90;21058;-49
2021/08/11 10:14:29;;;;;;;7.62;2.67;;;;;;;31.33;35.06;101186.39;1562039;90;21367;-48
2021/08/11 10:16:59;;;;;;;5.55;2.20;;;;;;;31.40;35.44;101188.84;1534175;92;21169;-48
2021/08/11 10:19:28;;;;;;;2.52;2.10;;;;;;;31.42;35.92;101190.02;1514431;94;21140;-51
2021/08/11 10:22:02;;;;;;;4.95;2.62;;;;;;;31.45;35.52;101191.89;1503186;93;21050;-51
2021/08/11 10:24:30;;;;;;;7.58;3.20;;;;;;;31.48;36.23;101177.29;1489295;95;21093;-52
2021/08/11 10:26:56;;;;;;;6.15;2.65;;;;;;;31.49;35.72;101193.27;1554665;91;21110;-49
2021/08/11 10:29:24;;;;;;;3.15;2.45;;;;;;;31.56;34.61;101184.92;1550740;91;21060;-50
2021/08/11 10:31:51;;;;;;;2.90;2.35;;;;;;;31.56;34.97;101188.95;1549041;91;22048;-50
2021/08/11 10:34:18;;;;;;;3.85;2.52;;;;;;;31.55;35.65;101183.22;1547351;91;21070;-50
2021/08/11 10:36:46;;;;;;;3.67;2.50;;;;;;;31.58;35.28;101188.30;1546928;90;21108;-51
2021/08/11 10:39:16;;;;;;;7.08;2.50;;;;;;;31.62;35.35;101182.94;1500094;93;21134;-50
2021/08/11 10:41:43;;;;;;;8.60;2.95;;;;;;;31.65;34.71;101182.64;1490526;95;21118;-50
2021/08/11 10:44:23;;;;;;;3.17;2.20;;;;;;;31.69;34.64;101173.24;1494291;94;21107;-52
2021/08/11 10:47:02;;;;;;;9.30;2.60;;;;;;;31.71;33.89;101172.58;1476999;95;21549;-49
2021/08/11 10:49:30;;;;;;;6.85;2.05;;;;;;;31.74;33.31;101177.62;1488083;95;21073;-50
2021/08/11 10:52:08;;;;;;;4.10;1.92;;;;;;;31.76;31.96;101178.31;1551472;90;21107;-49
2021/08/11 10:54:59;;;;;;;3.37;2.52;;;;;;;31.80;32.42;101181.02;1538154;92;21076;-49
2021/08/11 10:57:41;;;;;;;;;;;;;;;31.85;32.62;101174.67;1548263;91;21105;-47
2021/08/11 11:00:13;;;;;;;7.72;2.35;;;;;;;31.86;32.48;101173.66;1539114;91;20264;-49
2021/08/11 11:02:43;;;;;;;3.37;2.30;;;;;;;31.87;33.18;101175.36;1565082;90;21131;-49
2021/08/11 11:05:27;;;;;;;5.35;2.22;;;;;;;31.89;32.87;101169.31;1574060;89;21165;-51
2021/08/11 11:08:13;;;;;;;4.05;2.12;;;;;;;31.92;33.25;101175.70;1546809;90;21106;-49
2021/08/11 11:10:44;;;;;;;6.80;2.52;;;;;;;31.95;33.36;101175.92;1571822;90;21593;-48
2021/08/11 11:13:28;;;;;;;;;;;;;;;31.95;33.10;101174.08;1567039;89;21075;-47
2021/08/11 11:15:55;;;;;;;6.92;2.52;;;;;;;31.96;32.81;101177.10;1627977;86;20178;-50
2021/08/11 11:18:22;;;;;;;4.33;2.90;;;;;;;31.98;32.57;101171.05;1628771;86;21043;-46
2021/08/11 11:21:00;;;;;;;4.20;2.30;;;;;;;32.01;32.55;101170.75;1627646;88;21562;-47
2021/08/11 11:23:39;;;;;;;6.60;2.40;;;;;;;32.04;32.50;101179.86;1677692;84;21112;-49
2021/08/11 11:26:15;;;;;;;3.62;2.10;;;;;;;32.05;31.79;101172.11;1687389;84;21121;-49
2021/08/11 11:29:07;;;;;;;4.72;2.15;;;;;;;32.09;31.83;101170.78;1686454;83;21092;-51
2021/08/11 11:31:51;;;;;;;4.55;2.58;;;;;;;32.12;33.11;101167.42;1680279;84;21539;-48
2021/08/11 11:34:32;;;;;;;8.50;2.65;;;;;;;32.16;33.58;101162.05;1621967;87;21571;-49
2021/08/11 11:37:05;;;;;;;6.10;2.60;;;;;;;32.19;32.25;101160.39;1613981;88;21078;-50